createdAt,value
2023-03-03T00:02:14.837Z,15.03
2023-03-03T00:04:47.501Z,17.07
2023-03-03T00:07:34.985Z,15.93
2023-03-03T00:10:18.827Z,15.17
2023-03-03T00:12:57.485Z,17.83
2023-03-03T00:15:40.186Z,20.10
2023-03-03T00:18:30.385Z,25.77
2023-03-03T00:21:41.321Z,30.27
2023-03-03T00:24:23.460Z,26.73
2023-03-03T00:26:59.093Z,20.63
2023-03-03T00:29:53.987Z,19.47
2023-03-03T00:32:51.823Z,15.70
2023-03-03T00:38:40.974Z,20.53
2023-03-03T00:41:26.972Z,16.60
2023-03-03T00:44:16.919Z,18.07
2023-03-03T00:47:00.300Z,15.40
2023-03-03T00:49:38.175Z,19.60
2023-03-03T00:52:21.467Z,18.57
2023-03-03T00:55:29.681Z,13.53
2023-03-03T00:58:15.105Z,15.73
2023-03-03T01:01:11.109Z,15.17
2023-03-03T01:04:03.765Z,15.90
2023-03-03T01:06:41.992Z,16.37
2023-03-03T01:09:18.382Z,15.73
2023-03-03T01:11:58.944Z,14.83
2023-03-03T01:14:46.083Z,15.90
2023-03-03T01:17:37.258Z,17.03
2023-03-03T01:20:12.725Z,19.00
2023-03-03T01:22:48.390Z,19.97
2023-03-03T01:25:43.767Z,24.63
2023-03-03T01:28:40.651Z,21.50
2023-03-03T01:31:34.054Z,26.80
2023-03-03T01:37:40.759Z,24.43
2023-03-03T01:40:37.347Z,18.13
2023-03-03T01:43:25.674Z,17.53
2023-03-03T01:50:22.284Z,23.07
2023-03-03T01:53:26.059Z,24.17
2023-03-03T01:56:01.939Z,27.07
2023-03-03T01:59:06.336Z,22.10
2023-03-03T02:01:54.466Z,21.50
2023-03-03T02:04:29.433Z,20.83
2023-03-03T02:07:12.770Z,19.30
2023-03-03T02:13:23.531Z,17.90
2023-03-03T02:16:28.999Z,15.57
2023-03-03T02:19:52.033Z,20.63
2023-03-03T02:22:39.249Z,16.03
2023-03-03T02:25:33.838Z,14.60
2023-03-03T02:28:30.192Z,16.23
2023-03-03T02:31:32.830Z,17.73
2023-03-03T02:34:05.475Z,19.67
2023-03-03T02:36:47.096Z,17.30
2023-03-03T02:39:32.814Z,16.90
2023-03-03T02:45:23.072Z,15.47
2023-03-03T02:47:59.050Z,16.17
2023-03-03T02:50:59.760Z,15.43
2023-03-03T02:53:33.499Z,13.97
2023-03-03T02:56:11.303Z,14.43
2023-03-03T02:58:47.249Z,14.73
2023-03-03T03:01:23.321Z,17.57
2023-03-03T03:04:14.660Z,14.87
2023-03-03T03:06:57.665Z,15.13
2023-03-03T03:09:32.852Z,15.33
2023-03-03T03:15:19.892Z,13.83
2023-03-03T03:18:05.052Z,12.53
2023-03-03T03:20:40.856Z,17.20
2023-03-03T03:23:15.937Z,16.03
2023-03-03T03:25:50.575Z,16.57
2023-03-03T03:28:40.633Z,18.00
2023-03-03T03:31:19.453Z,15.50
2023-03-03T03:37:02.363Z,17.23
2023-03-03T03:39:36.269Z,18.13
2023-03-03T03:42:11.697Z,14.97
2023-03-03T03:47:34.371Z,13.57
2023-03-03T03:50:28.119Z,17.10
2023-03-03T03:53:01.866Z,16.73
2023-03-03T03:55:36.849Z,14.87
2023-03-03T04:01:21.978Z,15.97
2023-03-03T04:04:00.126Z,16.20
2023-03-03T04:06:58.774Z,15.97
2023-03-03T04:09:48.467Z,15.27
2023-03-03T04:12:39.726Z,16.47
2023-03-03T04:15:19.196Z,15.40
2023-03-03T04:17:52.161Z,16.80
2023-03-03T04:20:28.556Z,14.93
2023-03-03T04:23:04.862Z,13.50
2023-03-03T04:35:22.236Z,15.23
2023-03-03T04:37:56.952Z,16.23
2023-03-03T04:43:27.139Z,15.67
2023-03-03T04:45:58.430Z,15.37
2023-03-03T04:48:41.738Z,15.30
2023-03-03T04:51:22.903Z,15.90
2023-03-03T04:54:01.904Z,14.93
2023-03-03T04:59:36.306Z,15.20
2023-03-03T05:02:12.693Z,15.23
2023-03-03T05:04:58.593Z,17.00
2023-03-03T05:07:51.198Z,16.87
2023-03-03T05:10:53.959Z,14.67
2023-03-03T05:13:35.856Z,14.47
2023-03-03T05:16:16.190Z,14.73
2023-03-03T05:18:50.689Z,14.80
2023-03-03T05:21:26.103Z,16.80
2023-03-03T05:23:59.031Z,16.47
2023-03-03T05:26:50.402Z,16.37
2023-03-03T05:29:43.288Z,18.67
2023-03-03T05:32:21.728Z,13.20
2023-03-03T05:34:58.966Z,14.57
2023-03-03T05:37:43.331Z,18.13
2023-03-03T05:40:22.556Z,18.70
2023-03-03T05:42:54.721Z,23.33
2023-03-03T05:49:01.244Z,22.13
2023-03-03T05:57:28.543Z,19.80
2023-03-03T06:00:03.929Z,16.63
2023-03-03T06:02:50.704Z,18.50
2023-03-03T06:05:26.978Z,15.03
2023-03-03T06:08:06.693Z,15.90
2023-03-03T06:10:43.019Z,16.93
2023-03-03T06:13:21.919Z,15.03
2023-03-03T06:16:16.076Z,15.70
2023-03-03T06:19:51.929Z,18.33
2023-03-03T06:22:36.398Z,18.43
2023-03-03T06:25:38.413Z,16.83
2023-03-03T06:28:24.775Z,17.63
2023-03-03T06:31:09.219Z,19.47
2023-03-03T06:34:02.019Z,24.67
2023-03-03T06:36:52.308Z,22.07
2023-03-03T06:39:49.580Z,18.70
2023-03-03T06:42:49.994Z,22.77
2023-03-03T06:45:25.868Z,19.83
2023-03-03T06:48:07.892Z,17.73
2023-03-03T06:51:40.569Z,68.97
2023-03-03T06:55:17.466Z,72.93
2023-03-03T06:58:09.098Z,40.70
2023-03-03T07:00:48.428Z,31.23
2023-03-03T07:30:17.806Z,19.00
2023-03-03T07:33:09.522Z,18.23
2023-03-03T07:39:04.566Z,16.97
2023-03-03T07:46:07.996Z,25.27
2023-03-03T07:48:46.803Z,25.10
2023-03-03T07:54:46.172Z,26.47
2023-03-03T07:57:45.028Z,23.70
2023-03-03T08:01:21.272Z,25.67
2023-03-03T08:04:34.816Z,31.50
2023-03-03T08:10:46.809Z,26.70
2023-03-03T08:13:52.777Z,26.57
2023-03-03T08:16:49.100Z,25.17
2023-03-03T08:19:28.473Z,26.07
2023-03-03T08:22:44.578Z,30.43
2023-03-03T08:25:17.119Z,29.47
2023-03-03T08:27:50.553Z,23.77
2023-03-03T08:30:39.731Z,25.63
2023-03-03T08:33:13.010Z,22.17
2023-03-03T08:35:47.412Z,25.07
2023-03-03T08:38:22.601Z,23.30
2023-03-03T08:40:53.977Z,21.50
2023-03-03T08:43:25.327Z,27.07
2023-03-03T08:46:00.517Z,22.10
2023-03-03T08:48:33.053Z,30.73
2023-03-03T08:51:06.186Z,24.60
2023-03-03T08:53:38.837Z,28.80
2023-03-03T08:56:09.313Z,23.97
2023-03-03T08:58:43.378Z,32.17
2023-03-03T09:01:17.607Z,26.97
2023-03-03T09:04:11.312Z,29.63
2023-03-03T09:06:47.970Z,21.27
2023-03-03T09:09:20.216Z,25.37
2023-03-03T09:11:50.828Z,25.37
2023-03-03T09:14:24.357Z,33.90
2023-03-03T09:16:58.388Z,38.90
2023-03-03T09:22:28.109Z,21.80
2023-03-03T09:25:02.130Z,36.80
2023-03-03T09:27:35.846Z,63.07
2023-03-03T09:30:30.685Z,41.83
2023-03-03T09:33:02.827Z,31.67
2023-03-03T09:35:42.317Z,38.73
2023-03-03T09:38:32.162Z,34.13
2023-03-03T09:41:50.065Z,24.97
2023-03-03T09:45:07.811Z,28.40
2023-03-03T09:47:53.802Z,27.73
2023-03-03T09:50:39.028Z,26.80
2023-03-03T09:53:36.400Z,26.80
2023-03-03T09:56:21.924Z,22.17
2023-03-03T09:59:28.074Z,20.43
2023-03-03T10:02:27.280Z,21.30
2023-03-03T10:05:30.252Z,38.30
2023-03-03T10:08:31.705Z,23.63
2023-03-03T10:11:20.323Z,33.97
2023-03-03T10:14:15.289Z,21.00
2023-03-03T10:17:15.856Z,33.43
2023-03-03T10:20:05.466Z,25.70
2023-03-03T10:22:50.933Z,25.17
2023-03-03T10:25:39.248Z,27.53
2023-03-03T10:29:05.659Z,33.53
2023-03-03T10:31:53.107Z,19.67
2023-03-03T10:34:49.742Z,25.43
2023-03-03T10:37:31.883Z,28.03
2023-03-03T10:40:17.591Z,25.60
2023-03-03T10:43:32.195Z,28.67
2023-03-03T10:46:46.415Z,20.40
2023-03-03T10:49:47.765Z,23.33
2023-03-03T10:52:34.644Z,24.97
2023-03-03T10:55:44.367Z,25.50
2023-03-03T10:58:52.018Z,22.57
2023-03-03T11:05:21.990Z,24.77
2023-03-03T11:08:21.404Z,22.47
2023-03-03T12:10:52.265Z,22.07
2023-03-03T12:13:31.057Z,19.67
2023-03-03T12:16:12.100Z,21.40
2023-03-03T12:19:02.939Z,21.63
2023-03-03T12:21:48.689Z,20.25
2023-03-03T12:24:36.937Z,22.00
2023-03-03T12:27:23.052Z,30.30
2023-03-03T12:30:07.629Z,28.20
2023-03-03T12:33:13.511Z,20.67
2023-03-03T12:35:54.013Z,22.10
2023-03-03T12:38:39.056Z,28.85
2023-03-03T12:41:17.058Z,20.60
2023-03-03T12:43:59.394Z,22.05
2023-03-03T12:46:45.172Z,22.15
2023-03-03T12:49:14.168Z,22.38
2023-03-03T12:52:04.828Z,21.80
2023-03-03T12:54:55.370Z,21.73
2023-03-03T12:57:37.359Z,23.10
2023-03-03T13:00:31.940Z,23.10
2023-03-03T13:03:16.142Z,23.23
2023-03-03T13:06:00.176Z,23.38
2023-03-03T13:08:53.607Z,25.47
2023-03-03T13:11:41.401Z,21.33
2023-03-03T13:14:26.243Z,22.45
2023-03-03T13:17:16.648Z,22.33
2023-03-03T13:19:56.157Z,22.73
2023-03-03T13:22:45.185Z,22.83
2023-03-03T13:25:44.378Z,22.63
2023-03-03T13:28:24.527Z,22.95
2023-03-03T13:31:03.792Z,21.63
2023-03-03T13:33:36.990Z,22.92
2023-03-03T13:36:11.529Z,22.70
2023-03-03T13:38:48.472Z,23.30
2023-03-03T13:41:25.753Z,23.27
2023-03-03T13:44:04.950Z,21.85
2023-03-03T13:46:43.422Z,22.20
2023-03-03T13:49:56.430Z,23.65
2023-03-03T13:52:30.357Z,22.65
2023-03-03T13:55:22.544Z,22.98
2023-03-03T13:58:07.514Z,25.33
2023-03-03T14:00:54.621Z,23.65
2023-03-03T14:03:52.695Z,24.58
2023-03-03T14:06:25.163Z,23.13
2023-03-03T14:09:21.162Z,29.30
2023-03-03T14:12:00.821Z,23.92
2023-03-03T14:14:48.165Z,23.85
2023-03-03T14:17:31.044Z,24.10
2023-03-03T14:20:19.172Z,29.38
2023-03-03T14:22:54.750Z,24.20
2023-03-03T14:25:25.161Z,22.88
2023-03-03T14:28:05.810Z,23.83
2023-03-03T14:30:39.612Z,22.13
2023-03-03T14:33:22.022Z,23.42
2023-03-03T14:36:05.905Z,23.50
2023-03-03T14:38:45.869Z,25.80
2023-03-03T14:41:36.677Z,22.23
2023-03-03T14:44:29.444Z,24.08
2023-03-03T14:47:24.058Z,25.48
2023-03-03T15:27:19.379Z,21.50
2023-03-03T15:30:03.675Z,20.80
2023-03-03T15:32:43.220Z,21.83
2023-03-03T15:35:38.302Z,26.00
2023-03-03T15:38:26.058Z,23.07
2023-03-03T15:41:06.521Z,21.87
2023-03-03T15:43:43.117Z,24.13
2023-03-03T15:46:28.690Z,24.63
2023-03-03T15:49:19.519Z,24.53
2023-03-03T15:52:12.520Z,23.87
2023-03-03T15:54:53.503Z,25.60
2023-03-03T15:57:37.851Z,23.00
2023-03-03T16:00:39.092Z,26.67
2023-03-03T16:03:18.441Z,26.53
2023-03-03T16:06:06.733Z,27.03
2023-03-03T16:08:50.989Z,21.03
2023-03-03T16:11:29.770Z,27.97
2023-03-03T16:14:40.399Z,21.13
2023-03-03T16:17:27.934Z,23.00
2023-03-03T18:03:38.531Z,64.10
2023-03-03T18:06:46.111Z,36.90
2023-03-03T18:09:42.746Z,40.00
2023-03-03T18:12:21.600Z,39.70
2023-03-03T18:15:35.274Z,46.40
2023-03-03T18:18:32.548Z,36.47
2023-03-03T18:21:12.183Z,32.40
2023-03-03T18:23:43.499Z,42.30
2023-03-03T18:26:38.878Z,29.23
2023-03-03T18:29:28.420Z,32.60
2023-03-03T18:32:22.062Z,31.83
2023-03-03T18:35:30.062Z,29.77
2023-03-03T18:37:59.422Z,37.77
2023-03-03T18:40:40.157Z,50.00
2023-03-03T18:43:52.643Z,43.53
2023-03-03T18:46:50.499Z,33.10
2023-03-03T18:49:42.011Z,34.07
2023-03-03T18:52:23.254Z,35.13
2023-03-03T18:55:26.998Z,31.43
2023-03-03T18:58:41.982Z,26.53
2023-03-03T19:01:45.462Z,31.13
2023-03-03T19:04:55.637Z,26.70
2023-03-03T19:07:45.962Z,29.43
2023-03-03T19:11:07.028Z,32.23
2023-03-03T19:13:52.798Z,31.90
2023-03-03T19:16:41.014Z,30.93
2023-03-03T19:19:17.106Z,33.73
2023-03-03T19:21:52.760Z,36.70
2023-03-03T19:24:55.727Z,37.77
2023-03-03T19:27:39.045Z,31.03
2023-03-03T19:30:47.685Z,37.70
2023-03-03T19:33:58.434Z,36.57
2023-03-03T19:36:55.289Z,31.40
2023-03-03T19:40:01.191Z,34.83
2023-03-03T19:42:51.506Z,35.70
2023-03-03T19:45:45.384Z,34.87
2023-03-03T19:48:38.650Z,29.93
2023-03-03T19:51:28.055Z,34.43
2023-03-03T19:54:22.704Z,30.10
2023-03-03T19:57:36.832Z,27.50
2023-03-03T20:00:45.230Z,28.17
2023-03-03T20:04:09.368Z,33.27
2023-03-03T20:06:57.888Z,32.27
2023-03-03T20:09:44.653Z,27.67
2023-03-03T20:12:48.373Z,29.07
2023-03-03T20:15:35.074Z,26.77
2023-03-03T20:18:48.222Z,27.13
2023-03-03T20:21:45.393Z,23.77
2023-03-03T20:25:00.737Z,24.77
2023-03-03T20:28:19.260Z,27.10
2023-03-03T20:31:08.556Z,30.00
2023-03-03T20:33:54.963Z,27.57
2023-03-03T20:36:39.512Z,31.20
2023-03-03T20:39:17.586Z,39.00
2023-03-03T20:42:14.653Z,34.10
2023-03-03T20:45:22.388Z,29.63
2023-03-03T20:48:12.133Z,29.63
2023-03-03T20:50:58.691Z,36.97
2023-03-03T20:53:42.329Z,40.37
2023-03-03T20:56:26.057Z,31.20
2023-03-03T20:59:30.167Z,26.67
2023-03-03T21:02:19.806Z,27.77
2023-03-03T21:05:11.171Z,28.67
